createdAt,value
2023-04-26T00:00:46.642Z,75.17
2023-04-26T00:03:15.918Z,74.73
2023-04-26T00:05:47.214Z,74.92
2023-04-26T00:08:17.064Z,75.12
2023-04-26T00:10:46.291Z,75.08
2023-04-26T00:13:15.736Z,75.38
2023-04-26T00:15:45.429Z,76.07
2023-04-26T00:18:16.126Z,76.40
2023-04-26T00:20:47.550Z,76.43
2023-04-26T00:23:17.649Z,75.96
2023-04-26T00:25:50.026Z,76.19
2023-04-26T00:28:22.392Z,76.31
2023-04-26T00:31:01.848Z,77.03
2023-04-26T00:33:31.143Z,76.92
2023-04-26T00:36:01.771Z,76.32
2023-04-26T00:38:34.707Z,76.27
2023-04-26T00:41:06.159Z,77.23
2023-04-26T00:43:36.035Z,77.16
2023-04-26T00:46:07.003Z,76.70
2023-04-26T00:48:37.522Z,77.42
2023-04-26T00:51:10.123Z,76.57
2023-04-26T00:53:39.628Z,76.94
2023-04-26T00:56:11.894Z,76.86
2023-04-26T00:58:43.645Z,76.47
2023-04-26T01:01:13.753Z,76.38
2023-04-26T01:03:57.074Z,76.71
2023-04-26T01:06:32.033Z,76.69
2023-04-26T01:09:06.124Z,76.64
2023-04-26T01:11:37.456Z,77.37
2023-04-26T01:14:08.851Z,77.81
2023-04-26T01:16:38.939Z,77.67
2023-04-26T01:19:13.285Z,78.45
2023-04-26T01:21:44.813Z,78.29
2023-04-26T01:24:22.866Z,78.40
2023-04-26T01:26:56.012Z,79.19
2023-04-26T01:29:25.775Z,79.28
2023-04-26T01:31:56.785Z,79.07
2023-04-26T01:34:33.318Z,78.86
2023-04-26T01:37:03.364Z,79.43
2023-04-26T01:39:33.854Z,78.82
2023-04-26T01:42:06.534Z,78.93
2023-04-26T01:44:36.021Z,79.93
2023-04-26T01:47:07.629Z,79.97
2023-04-26T01:49:37.515Z,79.75
2023-04-26T01:52:07.320Z,80.34
2023-04-26T01:54:38.146Z,80.24
2023-04-26T01:57:08.069Z,79.49
2023-04-26T01:59:38.452Z,79.21
2023-04-26T02:02:08.067Z,79.51
2023-04-26T02:04:39.096Z,79.24
2023-04-26T02:07:09.388Z,79.80
2023-04-26T02:09:44.321Z,79.55
2023-04-26T02:12:14.244Z,79.79
2023-04-26T02:14:43.647Z,79.58
2023-04-26T02:17:13.384Z,79.15
2023-04-26T02:19:42.906Z,79.83
2023-04-26T02:22:14.826Z,79.99
2023-04-26T02:24:53.668Z,79.70
2023-04-26T02:27:23.546Z,80.18
2023-04-26T02:29:55.785Z,80.73
2023-04-26T02:32:28.354Z,79.92
2023-04-26T02:35:00.207Z,79.89
2023-04-26T02:37:32.599Z,79.88
2023-04-26T02:40:06.355Z,80.09
2023-04-26T02:42:36.245Z,80.38
2023-04-26T02:45:09.439Z,80.03
2023-04-26T02:47:39.382Z,80.31
2023-04-26T02:50:13.689Z,80.79
2023-04-26T02:52:43.431Z,80.14
2023-04-26T02:55:15.085Z,80.44
2023-04-26T02:57:44.305Z,81.17
2023-04-26T03:00:17.298Z,80.39
2023-04-26T03:02:47.167Z,80.35
2023-04-26T03:05:16.713Z,80.63
2023-04-26T03:07:46.891Z,80.66
2023-04-26T03:10:21.251Z,81.43
2023-04-26T03:12:52.195Z,80.96
2023-04-26T03:15:22.182Z,80.83
2023-04-26T03:17:53.028Z,80.68
2023-04-26T03:20:23.560Z,81.18
2023-04-26T03:22:54.531Z,81.94
2023-04-26T03:25:25.961Z,81.94
2023-04-26T03:27:56.612Z,82.12
2023-04-26T03:30:27.157Z,81.59
2023-04-26T03:33:02.590Z,82.03
2023-04-26T03:35:32.061Z,81.88
2023-04-26T03:38:04.790Z,81.83
2023-04-26T03:40:35.261Z,81.80
2023-04-26T03:43:06.027Z,82.14
2023-04-26T03:45:36.169Z,81.10
2023-04-26T03:48:07.280Z,81.50
2023-04-26T03:50:36.684Z,81.45
2023-04-26T03:53:07.110Z,80.68
2023-04-26T03:55:38.560Z,81.63
2023-04-26T03:58:08.696Z,81.33
2023-04-26T04:00:44.181Z,81.41
2023-04-26T04:03:16.403Z,81.02
2023-04-26T04:05:46.196Z,80.76
2023-04-26T04:08:16.172Z,81.96
2023-04-26T04:10:47.633Z,80.95
2023-04-26T04:13:17.737Z,82.07
2023-04-26T04:15:48.497Z,82.38
2023-04-26T04:18:23.931Z,81.25
2023-04-26T04:20:54.072Z,81.83
2023-04-26T04:23:24.252Z,81.97
2023-04-26T04:25:58.236Z,81.54
2023-04-26T04:28:27.997Z,81.74
2023-04-26T04:30:58.626Z,82.31
2023-04-26T04:33:36.933Z,81.92
2023-04-26T04:36:07.002Z,82.59
2023-04-26T04:38:36.398Z,82.18
2023-04-26T04:41:08.723Z,81.61
2023-04-26T04:43:37.686Z,81.95
2023-04-26T04:46:15.470Z,81.80
2023-04-26T04:48:44.620Z,81.22
2023-04-26T04:51:14.486Z,81.85
2023-04-26T04:53:44.816Z,81.43
2023-04-26T04:56:20.912Z,81.09
2023-04-26T04:58:52.026Z,81.24
2023-04-26T05:01:29.150Z,81.10
2023-04-26T05:03:58.848Z,80.79
2023-04-26T05:06:30.025Z,81.13
2023-04-26T05:08:59.901Z,80.47
2023-04-26T05:11:38.762Z,80.49
2023-04-26T05:14:08.493Z,80.64
2023-04-26T05:16:38.890Z,80.38
2023-04-26T05:19:09.775Z,80.14
2023-04-26T05:21:38.851Z,80.17
2023-04-26T05:24:07.852Z,79.80
2023-04-26T05:26:40.827Z,79.80
2023-04-26T05:29:13.262Z,79.72
2023-04-26T05:31:42.848Z,79.71
2023-04-26T05:34:13.278Z,80.15
2023-04-26T05:36:42.653Z,79.63
2023-04-26T05:39:15.089Z,79.71
2023-04-26T05:41:46.964Z,80.29
2023-04-26T05:44:17.098Z,79.71
2023-04-26T05:46:47.486Z,79.89
2023-04-26T05:49:18.346Z,79.79
2023-04-26T05:51:48.045Z,79.64
2023-04-26T05:54:17.059Z,79.24
2023-04-26T05:56:47.682Z,79.06
2023-04-26T05:59:16.452Z,79.61
2023-04-26T06:01:45.837Z,79.45
2023-04-26T06:04:15.593Z,79.67
2023-04-26T06:06:45.075Z,79.34
2023-04-26T06:09:13.872Z,79.27
2023-04-26T06:11:43.138Z,79.39
2023-04-26T06:14:26.948Z,79.17
2023-04-26T06:16:59.335Z,79.00
2023-04-26T06:19:29.328Z,79.21
2023-04-26T06:22:00.275Z,77.97
2023-04-26T06:24:29.449Z,77.33
2023-04-26T06:26:59.343Z,77.40
2023-04-26T06:29:34.610Z,77.39
2023-04-26T06:32:04.910Z,76.46
2023-04-26T06:34:33.622Z,75.87
2023-04-26T06:37:02.955Z,75.92
2023-04-26T06:39:37.623Z,75.68
2023-04-26T06:42:08.780Z,75.69
2023-04-26T06:44:40.349Z,75.73
2023-04-26T06:47:10.092Z,75.19
2023-04-26T06:49:40.260Z,75.37
2023-04-26T06:52:10.297Z,74.47
2023-04-26T06:54:53.666Z,73.75
2023-04-26T06:57:26.512Z,74.09
2023-04-26T06:59:58.365Z,73.89
2023-04-26T07:02:28.404Z,74.27
2023-04-26T07:05:02.251Z,73.60
2023-04-26T07:07:32.984Z,73.20
2023-04-26T07:10:02.818Z,73.76
2023-04-26T07:12:41.952Z,72.70
2023-04-26T07:15:14.947Z,71.59
2023-04-26T07:17:44.366Z,72.18
2023-04-26T07:20:16.110Z,71.59
2023-04-26T07:22:46.591Z,70.86
2023-04-26T07:25:16.180Z,70.26
2023-04-26T07:27:45.250Z,70.05
2023-04-26T07:30:17.001Z,69.84
2023-04-26T07:32:47.697Z,69.54
2023-04-26T07:35:20.805Z,68.69
2023-04-26T07:37:51.702Z,68.46
2023-04-26T07:40:23.154Z,67.73
2023-04-26T07:42:53.099Z,67.66
2023-04-26T07:45:25.373Z,66.33
2023-04-26T07:47:56.267Z,65.93
2023-04-26T07:50:27.601Z,65.54
2023-04-26T07:52:57.633Z,65.09
2023-04-26T07:55:31.558Z,64.21
2023-04-26T07:58:01.415Z,63.37
2023-04-26T08:00:39.446Z,62.10
2023-04-26T08:03:09.587Z,61.66
2023-04-26T08:05:38.911Z,61.50
2023-04-26T08:08:08.638Z,61.20
2023-04-26T08:10:52.607Z,60.39
2023-04-26T08:13:41.415Z,60.02
2023-04-26T08:16:16.345Z,60.65
2023-04-26T08:18:58.434Z,59.74
2023-04-26T08:21:31.351Z,59.04
2023-04-26T08:24:03.357Z,58.88
2023-04-26T08:26:32.178Z,58.14
2023-04-26T08:29:02.052Z,58.11
2023-04-26T08:31:38.798Z,57.24
2023-04-26T08:34:09.329Z,57.08
2023-04-26T08:36:53.697Z,56.23
2023-04-26T08:39:31.888Z,55.93
2023-04-26T08:42:11.950Z,54.70
2023-04-26T08:44:57.556Z,55.02
2023-04-26T08:47:48.449Z,54.99
2023-04-26T08:50:27.692Z,54.65
2023-04-26T08:52:59.614Z,53.69
2023-04-26T08:55:32.781Z,53.33
2023-04-26T08:58:05.849Z,53.28
2023-04-26T09:00:37.073Z,53.62
2023-04-26T09:03:07.992Z,55.23
2023-04-26T09:05:39.790Z,56.19
2023-04-26T09:08:10.995Z,58.63
2023-04-26T09:10:40.924Z,59.95
2023-04-26T09:13:10.077Z,61.68
2023-04-26T09:15:40.363Z,61.90
2023-04-26T09:18:22.306Z,61.66
2023-04-26T09:21:08.026Z,61.81
2023-04-26T09:23:37.869Z,61.45
2023-04-26T09:26:26.649Z,61.07
2023-04-26T09:29:21.419Z,60.11
2023-04-26T09:31:54.746Z,60.45
2023-04-26T09:34:26.585Z,60.17
2023-04-26T09:36:57.523Z,60.22
2023-04-26T09:39:34.586Z,60.19
2023-04-26T09:42:03.756Z,59.99
2023-04-26T09:44:33.708Z,59.87
2023-04-26T09:47:13.113Z,59.43
2023-04-26T09:49:53.189Z,59.43
2023-04-26T09:52:23.145Z,59.53
2023-04-26T09:54:55.553Z,59.76
2023-04-26T09:57:26.339Z,59.78
2023-04-26T09:59:57.772Z,59.53
2023-04-26T10:02:30.534Z,60.00
2023-04-26T10:05:02.268Z,60.99
2023-04-26T10:07:33.612Z,62.90
2023-04-26T10:10:07.676Z,63.73
2023-04-26T10:13:03.429Z,65.22
2023-04-26T10:15:51.355Z,66.28
2023-04-26T10:18:36.543Z,66.34
2023-04-26T10:21:17.962Z,66.40
2023-04-26T10:24:14.935Z,65.80
2023-04-26T10:27:01.700Z,65.20
2023-04-26T10:30:18.056Z,64.74
2023-04-26T10:33:24.602Z,64.21
2023-04-26T10:36:26.085Z,63.21
2023-04-26T10:39:30.276Z,62.65
2023-04-26T10:42:43.597Z,61.74
2023-04-26T10:45:34.972Z,61.35
2023-04-26T10:48:36.494Z,60.31
2023-04-26T10:51:46.137Z,59.69
2023-04-26T10:54:15.708Z,59.12
2023-04-26T10:56:55.115Z,58.26
2023-04-26T10:59:39.645Z,57.31
2023-04-26T11:02:13.906Z,56.32
2023-04-26T11:04:55.557Z,55.32
2023-04-26T11:07:42.879Z,55.75
2023-04-26T11:10:12.985Z,55.67
2023-04-26T11:12:44.479Z,54.94
2023-04-26T11:15:17.171Z,55.25
2023-04-26T11:17:46.593Z,55.10
2023-04-26T11:20:21.078Z,54.82
2023-04-26T11:22:51.612Z,54.69
2023-04-26T11:25:20.109Z,55.04
2023-04-26T11:27:48.494Z,55.17
2023-04-26T11:30:21.226Z,54.52
2023-04-26T11:32:49.757Z,54.78
2023-04-26T11:35:18.684Z,55.25
2023-04-26T11:37:49.644Z,55.84
2023-04-26T11:40:21.103Z,55.88
2023-04-26T11:42:49.721Z,56.26
2023-04-26T11:45:18.623Z,57.14
2023-04-26T11:47:47.896Z,59.25
2023-04-26T11:50:16.861Z,60.83
2023-04-26T11:52:45.404Z,62.03
2023-04-26T11:55:14.557Z,64.09
2023-04-26T11:57:44.420Z,65.47
2023-04-26T12:00:16.272Z,65.46
2023-04-26T12:02:50.209Z,66.13
2023-04-26T12:05:27.029Z,65.37
2023-04-26T12:07:57.968Z,66.06
2023-04-26T12:10:28.469Z,66.35
2023-04-26T12:13:01.120Z,66.37
2023-04-26T12:15:32.142Z,65.68
2023-04-26T12:18:07.489Z,65.30
2023-04-26T12:20:37.850Z,64.48
2023-04-26T12:23:09.000Z,63.50
2023-04-26T12:25:40.387Z,62.71
2023-04-26T12:28:14.172Z,61.90
2023-04-26T12:30:42.777Z,61.48
2023-04-26T12:33:17.130Z,61.14
2023-04-26T12:35:47.894Z,60.17
2023-04-26T12:38:16.837Z,60.17
2023-04-26T12:40:46.951Z,59.33
2023-04-26T12:43:17.112Z,59.14
2023-04-26T12:45:46.201Z,58.30
2023-04-26T12:48:14.847Z,57.78
2023-04-26T12:50:44.071Z,56.75
2023-04-26T12:53:12.890Z,56.63
2023-04-26T12:55:41.412Z,55.70
2023-04-26T12:58:09.789Z,55.35
2023-04-26T13:00:39.555Z,55.15
2023-04-26T13:03:08.335Z,54.65
2023-04-26T13:05:37.029Z,54.64
2023-04-26T13:08:05.523Z,54.54
2023-04-26T13:10:34.196Z,54.51
2023-04-26T13:13:02.866Z,54.29
2023-04-26T13:15:31.435Z,53.94
2023-04-26T13:18:01.362Z,54.40
2023-04-26T13:20:30.929Z,54.18
2023-04-26T13:22:59.716Z,54.99
2023-04-26T13:25:28.555Z,55.13
2023-04-26T13:27:57.297Z,55.66
2023-04-26T13:30:27.202Z,55.67
2023-04-26T13:32:56.979Z,56.20
2023-04-26T13:35:28.490Z,56.30
2023-04-26T13:37:57.129Z,57.22
2023-04-26T13:40:26.116Z,58.58
2023-04-26T13:42:54.628Z,59.65
2023-04-26T13:45:22.960Z,61.17
2023-04-26T13:47:51.352Z,62.63
2023-04-26T13:50:20.366Z,62.74
2023-04-26T13:52:51.097Z,63.48
2023-04-26T13:55:19.741Z,62.93
2023-04-26T13:57:48.082Z,63.67
2023-04-26T14:00:18.518Z,64.97
2023-04-26T14:02:47.079Z,65.55
2023-04-26T14:05:16.800Z,65.23
2023-04-26T14:07:45.517Z,66.39
2023-04-26T14:10:15.424Z,67.20
2023-04-26T14:12:43.838Z,66.71
2023-04-26T14:15:13.198Z,66.64
2023-04-26T14:17:42.158Z,66.10
2023-04-26T14:20:12.393Z,66.07
2023-04-26T14:22:40.830Z,66.47
2023-04-26T14:25:10.530Z,64.93
2023-04-26T14:27:40.699Z,65.17
2023-04-26T14:30:10.714Z,64.95
2023-04-26T14:32:39.181Z,64.71
2023-04-26T14:35:08.429Z,64.92
2023-04-26T14:37:36.884Z,63.75
2023-04-26T14:40:08.077Z,63.52
2023-04-26T14:42:36.821Z,63.70
2023-04-26T14:45:10.127Z,63.35
2023-04-26T14:47:38.719Z,62.77
2023-04-26T14:50:10.207Z,62.47
2023-04-26T14:52:38.997Z,62.73
2023-04-26T14:55:09.014Z,62.86
2023-04-26T14:57:37.352Z,62.09
2023-04-26T15:00:14.538Z,62.37
2023-04-26T15:02:43.115Z,62.09
2023-04-26T15:05:12.159Z,61.02
2023-04-26T15:07:41.083Z,60.42
2023-04-26T15:10:11.199Z,59.75
2023-04-26T15:12:39.658Z,59.31
2023-04-26T15:15:10.715Z,58.87
2023-04-26T15:17:39.210Z,58.35
2023-04-26T15:20:10.235Z,58.36
2023-04-26T15:22:39.100Z,58.17
2023-04-26T15:25:09.648Z,57.63
2023-04-26T15:27:38.303Z,57.49
2023-04-26T15:30:09.986Z,57.04
2023-04-26T15:32:38.471Z,56.46
2023-04-26T15:35:08.087Z,55.54
2023-04-26T15:37:38.821Z,54.79
2023-04-26T15:40:10.604Z,55.14
2023-04-26T15:42:39.816Z,55.03
2023-04-26T15:45:11.381Z,54.82
2023-04-26T15:47:39.905Z,54.86
2023-04-26T15:50:09.808Z,54.68
2023-04-26T15:52:39.684Z,54.26
2023-04-26T15:55:09.475Z,54.08
2023-04-26T15:57:38.673Z,54.95
2023-04-26T16:00:13.998Z,54.81
2023-04-26T16:02:44.586Z,55.19
2023-04-26T16:05:13.651Z,55.10
2023-04-26T16:07:42.450Z,54.96
2023-04-26T16:10:13.872Z,54.81
2023-04-26T16:12:44.815Z,53.76
2023-04-26T16:15:14.822Z,53.19
2023-04-26T16:17:44.534Z,52.03
2023-04-26T16:20:13.547Z,50.18
2023-04-26T16:22:42.277Z,49.89
2023-04-26T16:25:11.748Z,50.12
2023-04-26T16:27:40.251Z,50.97
2023-04-26T16:30:10.369Z,50.81
2023-04-26T16:32:40.127Z,51.25
2023-04-26T16:35:09.967Z,51.79
2023-04-26T16:37:39.954Z,52.00
2023-04-26T16:40:11.565Z,50.84
2023-04-26T16:42:43.322Z,49.12
2023-04-26T16:45:16.133Z,46.58
2023-04-26T16:47:46.558Z,47.05
2023-04-26T16:50:15.068Z,45.01
2023-04-26T16:52:44.550Z,42.93
2023-04-26T16:55:13.105Z,41.40
2023-04-26T16:57:41.976Z,39.23
2023-04-26T17:00:12.571Z,39.25
2023-04-26T17:02:42.098Z,38.99
2023-04-26T17:05:12.367Z,40.03
2023-04-26T17:07:40.904Z,41.28
2023-04-26T17:10:10.890Z,42.60
2023-04-26T17:12:39.458Z,43.13
2023-04-26T17:15:09.735Z,43.78
2023-04-26T17:17:38.371Z,43.94
2023-04-26T17:20:10.129Z,44.50
2023-04-26T17:22:41.258Z,43.80
2023-04-26T17:25:10.501Z,43.32
2023-04-26T17:27:39.100Z,42.71
2023-04-26T17:30:09.385Z,42.13
2023-04-26T17:32:37.940Z,40.01
2023-04-26T17:35:07.644Z,40.03
2023-04-26T17:37:36.167Z,40.74
2023-04-26T17:40:08.279Z,41.13
2023-04-26T17:42:36.979Z,40.60
2023-04-26T17:45:06.769Z,39.57
2023-04-26T17:47:35.217Z,37.95
2023-04-26T17:50:03.834Z,37.06
2023-04-26T17:52:32.582Z,36.80
2023-04-26T17:55:01.499Z,36.23
2023-04-26T17:57:31.325Z,35.82
2023-04-26T17:59:59.803Z,35.73
2023-04-26T18:02:28.518Z,35.93
2023-04-26T18:04:57.447Z,36.13
2023-04-26T18:07:26.555Z,36.14
2023-04-26T18:09:54.997Z,36.66
2023-04-26T18:12:23.612Z,37.55
2023-04-26T18:14:53.425Z,38.53
2023-04-26T18:17:22.335Z,39.38
2023-04-26T18:19:51.139Z,40.50
2023-04-26T18:22:20.421Z,41.77
2023-04-26T18:24:48.836Z,42.80
2023-04-26T18:27:17.272Z,43.95
2023-04-26T18:29:45.858Z,45.18
2023-04-26T18:32:15.710Z,46.24
2023-04-26T18:34:44.247Z,46.47
2023-04-26T18:37:12.726Z,47.55
2023-04-26T18:39:41.201Z,48.53
2023-04-26T18:42:09.555Z,48.85
2023-04-26T18:44:37.961Z,50.52
2023-04-26T18:47:06.653Z,50.50
2023-04-26T18:49:36.462Z,52.26
2023-04-26T18:52:08.736Z,52.31
2023-04-26T18:54:38.423Z,53.67
2023-04-26T18:57:06.886Z,53.32
2023-04-26T18:59:35.357Z,54.23
2023-04-26T19:02:05.312Z,54.63
2023-04-26T19:04:35.436Z,55.50
2023-04-26T19:07:04.005Z,55.53
2023-04-26T19:09:42.810Z,56.30
2023-04-26T19:12:19.194Z,56.81
2023-04-26T19:14:47.629Z,56.26
2023-04-26T19:17:16.065Z,57.32
2023-04-26T19:19:46.030Z,56.78
2023-04-26T19:22:14.491Z,56.79
2023-04-26T19:24:42.839Z,56.89
2023-04-26T19:27:11.516Z,58.05
2023-04-26T19:29:39.868Z,57.46
2023-04-26T19:32:10.142Z,58.42
2023-04-26T19:34:40.757Z,58.51
2023-04-26T19:37:10.581Z,59.14
2023-04-26T19:39:38.936Z,59.72
2023-04-26T19:42:07.486Z,59.02
2023-04-26T19:44:36.032Z,60.23
2023-04-26T19:47:05.289Z,59.47
2023-04-26T19:49:33.853Z,60.08
2023-04-26T19:52:03.104Z,60.41
2023-04-26T19:54:34.044Z,60.85
2023-04-26T19:57:03.877Z,60.58
2023-04-26T19:59:32.370Z,61.39
2023-04-26T20:02:01.046Z,62.01
2023-04-26T20:04:29.587Z,62.42
2023-04-26T20:06:58.519Z,62.41
2023-04-26T20:09:27.421Z,62.54
2023-04-26T20:11:58.176Z,62.89
2023-04-26T20:14:27.480Z,63.08
2023-04-26T20:16:56.150Z,63.47
2023-04-26T20:19:24.625Z,63.62
2023-04-26T20:21:53.015Z,64.04
2023-04-26T20:24:23.444Z,64.57
2023-04-26T20:26:52.251Z,65.09
2023-04-26T20:29:22.294Z,65.24
2023-04-26T20:31:51.103Z,65.79
2023-04-26T20:34:19.701Z,65.68
2023-04-26T20:36:51.198Z,66.58
2023-04-26T20:39:21.595Z,66.54
2023-04-26T20:41:50.195Z,67.19
2023-04-26T20:44:19.055Z,67.35
2023-04-26T20:46:48.923Z,67.83
2023-04-26T20:49:17.272Z,68.39
2023-04-26T20:51:45.972Z,68.42
2023-04-26T20:54:14.322Z,68.85
2023-04-26T20:56:42.767Z,68.86
2023-04-26T20:59:11.804Z,69.64
2023-04-26T21:01:40.458Z,69.64
2023-04-26T21:04:10.377Z,69.37
2023-04-26T21:06:39.440Z,70.47
2023-04-26T21:09:08.480Z,70.11
2023-04-26T21:11:37.234Z,70.75
2023-04-26T21:14:06.871Z,70.58
2023-04-26T21:16:35.399Z,71.30
2023-04-26T21:19:05.134Z,70.70
2023-04-26T21:21:35.074Z,71.54
2023-04-26T21:24:04.240Z,70.99
2023-04-26T21:26:32.488Z,71.72
2023-04-26T21:29:01.004Z,72.20
2023-04-26T21:31:29.436Z,72.14
2023-04-26T21:33:58.106Z,71.69
2023-04-26T21:36:26.762Z,72.01
2023-04-26T21:38:59.288Z,72.33
2023-04-26T21:41:27.747Z,72.93
2023-04-26T21:43:57.214Z,73.05
2023-04-26T21:46:26.506Z,73.17
2023-04-26T21:48:55.240Z,72.99
2023-04-26T21:51:23.742Z,73.76
2023-04-26T21:53:52.384Z,73.91
2023-04-26T21:56:22.232Z,73.71
2023-04-26T21:58:50.606Z,74.06
2023-04-26T22:01:19.137Z,73.90
2023-04-26T22:03:47.666Z,74.31
2023-04-26T22:06:16.151Z,73.75
2023-04-26T22:08:44.590Z,74.54
2023-04-26T22:11:13.193Z,74.24
2023-04-26T22:13:42.921Z,74.65
2023-04-26T22:16:11.387Z,74.60
2023-04-26T22:18:39.847Z,74.86
2023-04-26T22:21:08.335Z,74.92
2023-04-26T22:23:36.751Z,74.78
2023-04-26T22:26:05.205Z,74.54
2023-04-26T22:28:33.665Z,75.21
2023-04-26T22:31:03.509Z,75.35
2023-04-26T22:33:31.996Z,75.49
2023-04-26T22:36:00.456Z,76.20
2023-04-26T22:38:29.052Z,76.15
2023-04-26T22:40:57.646Z,75.79
2023-04-26T22:43:26.306Z,76.00
2023-04-26T22:45:54.804Z,76.38
2023-04-26T22:48:24.641Z,76.01
2023-04-26T22:50:53.120Z,76.47
2023-04-26T22:53:22.666Z,76.39
2023-04-26T22:55:51.872Z,77.12
2023-04-26T22:58:24.090Z,77.05
2023-04-26T23:00:53.094Z,76.90
2023-04-26T23:03:23.759Z,77.03
2023-04-26T23:05:52.808Z,76.53
2023-04-26T23:08:22.804Z,77.30
2023-04-26T23:10:51.703Z,77.39
2023-04-26T23:13:21.813Z,76.78
2023-04-26T23:15:50.613Z,77.20
2023-04-26T23:18:20.857Z,77.80
2023-04-26T23:20:51.732Z,76.99
2023-04-26T23:23:20.511Z,77.81
2023-04-26T23:25:51.239Z,77.58
2023-04-26T23:28:20.471Z,78.04
2023-04-26T23:30:50.794Z,78.62
2023-04-26T23:33:20.220Z,78.59
2023-04-26T23:35:50.586Z,78.47
2023-04-26T23:38:20.767Z,77.92
2023-04-26T23:40:49.340Z,78.66
2023-04-26T23:43:17.747Z,78.79
2023-04-26T23:45:48.248Z,77.99
2023-04-26T23:48:17.961Z,79.33
2023-04-26T23:50:46.345Z,78.87
2023-04-26T23:53:16.218Z,78.65
2023-04-26T23:55:44.616Z,78.53
2023-04-26T23:58:13.013Z,78.83
